Time;durP1;ratioP1;P1;durP2;ratioP2;P2;SDS_P1;SDS_P2;PMS_P1;PMS_P2;Temp;Humidity;BMP_temperature;BMP_pressure;BME280_temperature;BME280_humidity;BME280_pressure;Samples;Min_cycle;Max_cycle;Signal;HPM_P1;HPM_P2
2022/05/26 00:00:07;;;;;;;0.00;0.00;;;;;;;;;;1738603;28;20252;-73
2022/05/26 00:01:00;;;;;;;0.00;0.00;;;;;;;;;;1736340;28;20245;-72
2022/05/26 00:01:51;;;;;;;0.00;0.00;;;;;;;;;;1740152;28;20625;-72
2022/05/26 00:02:44;;;;;;;0.00;0.00;;;;;;;;;;1738903;28;20206;-72
2022/05/26 00:03:35;;;;;;;0.00;0.00;;;;;;;;;;1740146;28;20211;-72
2022/05/26 00:04:28;;;;;;;0.00;0.00;;;;;;;;;;1739726;28;20235;-72
2022/05/26 00:05:22;;;;;;;0.00;0.00;;;;;;;;;;1738356;28;20738;-72
2022/05/26 00:06:15;;;;;;;0.00;0.00;;;;;;;;;;1739605;28;20195;-72
2022/05/26 00:07:09;;;;;;;0.00;0.00;;;;;;;;;;1739357;28;20675;-73
2022/05/26 00:08:01;;;;;;;0.00;0.00;;;;;;;;;;1739166;28;20338;-73
2022/05/26 00:08:52;;;;;;;0.10;0.10;;;;;;;;;;1739998;28;20229;-73
2022/05/26 00:09:45;;;;;;;0.10;0.10;;;;;;;;;;1739713;28;21297;-73
2022/05/26 00:10:36;;;;;;;0.00;0.00;;;;;;;;;;1738443;28;20264;-73
2022/05/26 00:11:29;;;;;;;0.00;0.00;;;;;;;;;;1739728;28;20221;-73
2022/05/26 00:12:21;;;;;;;0.00;0.00;;;;;;;;;;1739634;28;20215;-73
2022/05/26 00:13:13;;;;;;;0.00;0.00;;;;;;;;;;1738785;28;20195;-73
2022/05/26 00:14:07;;;;;;;0.03;0.03;;;;;;;;;;1739857;28;21007;-73
2022/05/26 00:14:59;;;;;;;0.00;0.00;;;;;;;;;;1738245;28;20199;-73
2022/05/26 00:15:50;;;;;;;0.00;0.00;;;;;;;;;;1738859;28;20755;-73
2022/05/26 00:16:45;;;;;;;0.00;0.00;;;;;;;;;;1739328;28;20269;-73
2022/05/26 00:17:37;;;;;;;0.00;0.00;;;;;;;;;;1740171;28;20218;-73
2022/05/26 00:18:28;;;;;;;0.00;0.00;;;;;;;;;;1739094;28;20218;-73
2022/05/26 00:19:21;;;;;;;0.00;0.00;;;;;;;;;;1738764;28;20216;-73
2022/05/26 00:20:14;;;;;;;0.00;0.00;;;;;;;;;;1738871;28;20607;-73
2022/05/26 00:21:07;;;;;;;0.00;0.00;;;;;;;;;;1738823;28;20704;-73
2022/05/26 00:21:58;;;;;;;0.00;0.00;;;;;;;;;;1740076;28;20207;-73
2022/05/26 00:22:50;;;;;;;0.00;0.00;;;;;;;;;;1739697;28;20595;-73
2022/05/26 00:23:41;;;;;;;0.00;0.00;;;;;;;;;;1739188;28;20210;-72
2022/05/26 00:24:33;;;;;;;0.00;0.00;;;;;;;;;;1739335;28;20198;-72
2022/05/26 00:25:25;;;;;;;0.00;0.00;;;;;;;;;;1737047;28;20241;-72
2022/05/26 00:26:17;;;;;;;0.00;0.00;;;;;;;;;;1739834;28;20219;-72
2022/05/26 00:27:08;;;;;;;0.00;0.00;;;;;;;;;;1739807;28;20202;-72
2022/05/26 00:28:00;;;;;;;0.00;0.00;;;;;;;;;;1739464;28;20199;-72
2022/05/26 00:28:52;;;;;;;0.00;0.00;;;;;;;;;;1740207;28;20207;-72
2022/05/26 00:29:45;;;;;;;0.00;0.00;;;;;;;;;;1739383;28;20246;-72
2022/05/26 00:30:37;;;;;;;0.00;0.00;;;;;;;;;;1738066;28;20230;-72
2022/05/26 00:31:30;;;;;;;0.00;0.00;;;;;;;;;;1738585;28;20206;-72
2022/05/26 00:32:23;;;;;;;0.00;0.00;;;;;;;;;;1739952;28;20210;-72
2022/05/26 00:33:15;;;;;;;0.00;0.00;;;;;;;;;;1739343;28;20567;-72
2022/05/26 00:34:06;;;;;;;0.00;0.00;;;;;;;;;;1739756;28;20202;-72
2022/05/26 00:34:58;;;;;;;0.00;0.00;;;;;;;;;;1739335;28;20552;-72
2022/05/26 00:35:50;;;;;;;0.00;0.00;;;;;;;;;;1738393;28;20533;-73
2022/05/26 00:36:43;;;;;;;0.00;0.00;;;;;;;;;;1739329;28;20222;-72
2022/05/26 00:37:34;;;;;;;0.00;0.00;;;;;;;;;;1739092;28;20719;-73
2022/05/26 00:38:27;;;;;;;0.00;0.00;;;;;;;;;;1738902;28;20195;-73
2022/05/26 00:39:19;;;;;;;0.00;0.00;;;;;;;;;;1739913;28;20199;-73
2022/05/26 00:40:12;;;;;;;0.00;0.00;;;;;;;;;;1739372;28;20195;-73
2022/05/26 00:41:05;;;;;;;0.00;0.00;;;;;;;;;;1738886;28;20568;-73
2022/05/26 00:42:00;;;;;;;0.00;0.00;;;;;;;;;;1746055;28;20216;-73
2022/05/26 00:42:53;;;;;;;0.00;0.00;;;;;;;;;;1746401;28;20194;-73
2022/05/26 00:43:46;;;;;;;0.00;0.00;;;;;;;;;;1743253;28;20206;-73
2022/05/26 00:44:37;;;;;;;0.00;0.00;;;;;;;;;;1745918;28;20210;-73
2022/05/26 00:45:36;;;;;;;0.00;0.00;;;;;;;;;;1745423;28;20226;-72
2022/05/26 00:46:33;;;;;;;0.00;0.00;;;;;;;;;;1746291;28;20244;-72
2022/05/26 00:47:28;;;;;;;0.00;0.00;;;;;;;;;;1746466;28;20395;-72
2022/05/26 00:48:21;;;;;;;0.00;0.00;;;;;;;;;;1746195;28;20821;-72
2022/05/26 00:49:18;;;;;;;0.00;0.00;;;;;;;;;;1747035;28;20285;-72
2022/05/26 00:50:13;;;;;;;0.00;0.00;;;;;;;;;;1745125;28;20201;-72
2022/05/26 00:51:06;;;;;;;0.00;0.00;;;;;;;;;;1744802;28;20233;-72
2022/05/26 00:51:58;;;;;;;0.00;0.00;;;;;;;;;;1746799;28;20198;-72
2022/05/26 00:52:52;;;;;;;0.00;0.00;;;;;;;;;;1745791;28;20205;-72
2022/05/26 00:53:44;;;;;;;0.00;0.00;;;;;;;;;;1746796;28;20210;-72
2022/05/26 00:54:36;;;;;;;0.00;0.00;;;;;;;;;;1746109;28;20279;-72
2022/05/26 00:55:32;;;;;;;0.00;0.00;;;;;;;;;;1745144;28;20205;-72
2022/05/26 00:56:29;;;;;;;0.00;0.00;;;;;;;;;;1745247;28;20207;-72
2022/05/26 00:57:22;;;;;;;0.00;0.00;;;;;;;;;;1746439;28;20229;-72
2022/05/26 00:58:16;;;;;;;0.00;0.00;;;;;;;;;;1746052;28;20208;-73
2022/05/26 00:59:11;;;;;;;0.00;0.00;;;;;;;;;;1739873;28;20298;-73
2022/05/26 01:00:06;;;;;;;0.00;0.00;;;;;;;;;;1745664;28;20510;-73
2022/05/26 01:00:59;;;;;;;0.10;0.10;;;;;;;;;;1740153;28;20273;-72
2022/05/26 01:01:52;;;;;;;0.00;0.00;;;;;;;;;;1746277;28;20689;-72
2022/05/26 01:02:47;;;;;;;0.00;0.00;;;;;;;;;;1745581;28;20210;-72
2022/05/26 01:03:41;;;;;;;0.00;0.00;;;;;;;;;;1746497;28;20234;-72
2022/05/26 01:04:36;;;;;;;0.00;0.00;;;;;;;;;;1746047;28;20211;-72
2022/05/26 01:05:34;;;;;;;0.00;0.00;;;;;;;;;;1744921;28;20296;-72
2022/05/26 01:06:29;;;;;;;0.00;0.00;;;;;;;;;;1746179;28;20469;-72
2022/05/26 01:07:23;;;;;;;0.00;0.00;;;;;;;;;;1746364;28;20281;-72
2022/05/26 01:08:18;;;;;;;0.00;0.00;;;;;;;;;;1738579;28;20700;-72
2022/05/26 01:09:10;;;;;;;0.00;0.00;;;;;;;;;;1731526;28;20287;-72
2022/05/26 01:10:02;;;;;;;0.00;0.00;;;;;;;;;;1743207;28;20679;-72
2022/05/26 01:10:54;;;;;;;0.00;0.00;;;;;;;;;;1745234;28;20236;-72
2022/05/26 01:11:45;;;;;;;0.00;0.00;;;;;;;;;;1746053;28;20221;-72
2022/05/26 01:12:38;;;;;;;0.00;0.00;;;;;;;;;;1747134;28;20202;-72
2022/05/26 01:13:30;;;;;;;0.00;0.00;;;;;;;;;;1746352;28;20655;-72
2022/05/26 01:14:25;;;;;;;0.00;0.00;;;;;;;;;;1748250;28;20427;-72
2022/05/26 01:15:18;;;;;;;0.00;0.00;;;;;;;;;;1743636;28;20534;-72
2022/05/26 01:16:15;;;;;;;0.00;0.00;;;;;;;;;;1746933;28;20190;-72
2022/05/26 01:17:10;;;;;;;0.00;0.00;;;;;;;;;;1746414;28;20720;-72
2022/05/26 01:18:10;;;;;;;0.00;0.00;;;;;;;;;;1746265;28;20199;-72
2022/05/26 01:19:09;;;;;;;0.00;0.00;;;;;;;;;;1746724;28;20538;-72
2022/05/26 01:20:22;;;;;;;0.00;0.00;;;;;;;;;;1746103;28;20587;-72
2022/05/26 01:21:18;;;;;;;0.00;0.00;;;;;;;;;;1744263;28;20234;-72
2022/05/26 01:22:20;;;;;;;0.00;0.00;;;;;;;;;;1746360;28;20201;-72
2022/05/26 01:23:44;;;;;;;0.00;0.00;;;;;;;;;;1745993;28;20636;-72
2022/05/26 01:24:47;;;;;;;0.00;0.00;;;;;;;;;;1741904;28;20191;-72
2022/05/26 01:25:50;;;;;;;0.00;0.00;;;;;;;;;;1745011;28;20242;-72
2022/05/26 01:26:59;;;;;;;0.00;0.00;;;;;;;;;;1746010;28;20198;-72
2022/05/26 01:27:57;;;;;;;0.00;0.00;;;;;;;;;;1744946;28;20292;-72
2022/05/26 01:29:01;;;;;;;0.00;0.00;;;;;;;;;;1746980;28;20260;-72
2022/05/26 01:30:26;;;;;;;0.00;0.00;;;;;;;;;;1745814;28;20198;-72
2022/05/26 01:31:25;;;;;;;0.00;0.00;;;;;;;;;;1727713;28;20234;-72
2022/05/26 01:32:22;;;;;;;0.00;0.00;;;;;;;;;;1739474;28;20639;-72
2022/05/26 01:33:22;;;;;;;0.00;0.00;;;;;;;;;;1745598;28;20763;-73
2022/05/26 01:34:18;;;;;;;0.00;0.00;;;;;;;;;;1738903;28;20688;-72
2022/05/26 01:35:13;;;;;;;0.00;0.00;;;;;;;;;;1746243;28;20214;-72
2022/05/26 01:36:24;;;;;;;0.00;0.00;;;;;;;;;;1745670;28;20332;-72
2022/05/26 01:37:21;;;;;;;0.00;0.00;;;;;;;;;;1751553;28;20250;-72
2022/05/26 01:38:21;;;;;;;0.00;0.00;;;;;;;;;;1752666;28;20200;-72
2022/05/26 01:39:17;;;;;;;0.00;0.00;;;;;;;;;;1746636;28;20218;-72
2022/05/26 01:40:14;;;;;;;0.00;0.00;;;;;;;;;;1752191;28;20256;-72
2022/05/26 01:41:08;;;;;;;0.00;0.00;;;;;;;;;;1743887;28;20241;-72
2022/05/26 01:42:06;;;;;;;0.00;0.00;;;;;;;;;;1746229;28;20194;-72
2022/05/26 01:43:02;;;;;;;0.00;0.00;;;;;;;;;;1745565;28;20681;-72
2022/05/26 01:43:57;;;;;;;0.00;0.00;;;;;;;;;;1743568;28;20207;-72
2022/05/26 01:44:51;;;;;;;0.00;0.00;;;;;;;;;;1738582;28;20195;-73
2022/05/26 01:45:48;;;;;;;0.00;0.00;;;;;;;;;;1748555;28;20695;-73
2022/05/26 01:46:42;;;;;;;0.00;0.00;;;;;;;;;;1751221;28;20214;-73
2022/05/26 01:47:43;;;;;;;0.00;0.00;;;;;;;;;;1753385;28;20239;-73
2022/05/26 01:48:38;;;;;;;0.00;0.00;;;;;;;;;;1752696;28;20194;-72
2022/05/26 01:49:34;;;;;;;0.00;0.00;;;;;;;;;;1753127;28;20659;-72
2022/05/26 01:50:29;;;;;;;0.00;0.00;;;;;;;;;;1746687;28;20193;-72
2022/05/26 01:51:25;;;;;;;0.00;0.00;;;;;;;;;;1744748;28;20198;-72
2022/05/26 01:52:18;;;;;;;0.00;0.00;;;;;;;;;;1744743;28;20414;-72
2022/05/26 01:53:16;;;;;;;0.00;0.00;;;;;;;;;;1740897;28;20277;-72
2022/05/26 01:54:11;;;;;;;0.00;0.00;;;;;;;;;;1739333;28;20187;-72
2022/05/26 01:55:07;;;;;;;0.00;0.00;;;;;;;;;;1743663;28;20281;-72
2022/05/26 01:56:02;;;;;;;0.00;0.00;;;;;;;;;;1745147;28;20241;-72
2022/05/26 01:56:56;;;;;;;0.00;0.00;;;;;;;;;;1742647;28;20187;-72
2022/05/26 01:57:52;;;;;;;0.00;0.00;;;;;;;;;;1745465;28;20960;-72
2022/05/26 01:58:45;;;;;;;0.00;0.00;;;;;;;;;;1745177;28;20627;-72
2022/05/26 01:59:38;;;;;;;0.00;0.00;;;;;;;;;;1744215;28;20780;-72
2022/05/26 02:00:30;;;;;;;0.00;0.00;;;;;;;;;;1744627;28;20317;-72
2022/05/26 02:01:23;;;;;;;0.00;0.00;;;;;;;;;;1744421;28;20221;-72
2022/05/26 02:02:20;;;;;;;0.00;0.00;;;;;;;;;;1746389;28;20209;-72
2022/05/26 02:03:13;;;;;;;0.00;0.00;;;;;;;;;;1744776;28;20214;-72
2022/05/26 02:04:08;;;;;;;0.00;0.00;;;;;;;;;;1746554;28;20560;-72
2022/05/26 02:05:02;;;;;;;0.00;0.00;;;;;;;;;;1743233;28;20199;-72
2022/05/26 02:05:55;;;;;;;0.00;0.00;;;;;;;;;;1744265;28;20230;-72
2022/05/26 02:06:49;;;;;;;0.00;0.00;;;;;;;;;;1744323;28;20212;-72
2022/05/26 02:07:42;;;;;;;0.00;0.00;;;;;;;;;;1745395;28;20207;-72
2022/05/26 02:08:36;;;;;;;0.00;0.00;;;;;;;;;;1745770;28;20672;-73
2022/05/26 02:09:29;;;;;;;0.00;0.00;;;;;;;;;;1744700;28;20482;-73
2022/05/26 02:10:25;;;;;;;0.00;0.00;;;;;;;;;;1740588;28;20209;-73
2022/05/26 02:11:17;;;;;;;0.00;0.00;;;;;;;;;;1744463;28;20187;-73
2022/05/26 02:12:11;;;;;;;0.00;0.00;;;;;;;;;;1745719;28;20198;-73
2022/05/26 02:13:04;;;;;;;0.00;0.00;;;;;;;;;;1745102;28;20517;-73
2022/05/26 02:13:58;;;;;;;0.00;0.00;;;;;;;;;;1746065;28;20293;-73
2022/05/26 02:14:51;;;;;;;0.00;0.00;;;;;;;;;;1742928;28;20229;-73
2022/05/26 02:15:46;;;;;;;0.03;0.03;;;;;;;;;;1744302;28;20264;-73
2022/05/26 02:16:40;;;;;;;0.00;0.00;;;;;;;;;;1744152;28;20237;-72
2022/05/26 02:17:36;;;;;;;0.00;0.00;;;;;;;;;;1745491;28;20237;-72
2022/05/26 02:18:29;;;;;;;0.00;0.00;;;;;;;;;;1745161;28;20198;-73
2022/05/26 02:19:23;;;;;;;0.00;0.00;;;;;;;;;;1744600;28;20225;-72
2022/05/26 02:20:17;;;;;;;0.00;0.00;;;;;;;;;;1744611;28;20302;-72
2022/05/26 02:21:10;;;;;;;0.00;0.00;;;;;;;;;;1753885;28;20673;-72
2022/05/26 02:22:04;;;;;;;0.00;0.00;;;;;;;;;;1759171;28;20208;-72
2022/05/26 02:22:59;;;;;;;0.00;0.00;;;;;;;;;;1759500;28;20205;-73
2022/05/26 02:23:54;;;;;;;0.00;0.00;;;;;;;;;;1757377;28;20200;-73
2022/05/26 02:24:49;;;;;;;0.00;0.00;;;;;;;;;;1759200;28;20201;-73
2022/05/26 02:25:40;;;;;;;0.00;0.00;;;;;;;;;;1758803;28;20252;-73
2022/05/26 02:26:33;;;;;;;0.00;0.00;;;;;;;;;;1759464;28;20635;-73
2022/05/26 02:27:26;;;;;;;0.00;0.00;;;;;;;;;;1759735;28;20213;-73
2022/05/26 02:28:19;;;;;;;0.00;0.00;;;;;;;;;;1759312;28;20566;-73
2022/05/26 02:30:21;;;;;;;0.00;0.00;;;;;;;;;;1756143;28;20197;-73
2022/05/26 02:31:12;;;;;;;0.00;0.00;;;;;;;;;;1759907;28;20204;-73
2022/05/26 02:32:05;;;;;;;0.00;0.00;;;;;;;;;;1759987;28;20197;-73
2022/05/26 02:32:59;;;;;;;0.00;0.00;;;;;;;;;;1759527;28;20622;-72
2022/05/26 02:33:53;;;;;;;0.00;0.00;;;;;;;;;;1759787;28;20201;-72
2022/05/26 02:34:44;;;;;;;0.00;0.00;;;;;;;;;;1759477;28;20219;-72
2022/05/26 02:35:38;;;;;;;0.00;0.00;;;;;;;;;;1758857;28;20232;-72
2022/05/26 02:36:31;;;;;;;0.00;0.00;;;;;;;;;;1758878;28;20189;-72
2022/05/26 02:37:25;;;;;;;0.00;0.00;;;;;;;;;;1759582;28;20528;-72
2022/05/26 02:38:17;;;;;;;0.00;0.00;;;;;;;;;;1759533;28;20207;-72
2022/05/26 02:39:08;;;;;;;0.00;0.00;;;;;;;;;;1752887;28;20201;-72
2022/05/26 02:40:00;;;;;;;0.00;0.00;;;;;;;;;;1758225;28;20251;-72
2022/05/26 02:40:53;;;;;;;0.00;0.00;;;;;;;;;;1755333;28;20228;-72
2022/05/26 02:41:45;;;;;;;0.00;0.00;;;;;;;;;;1752439;28;20836;-73
2022/05/26 02:42:42;;;;;;;0.10;0.10;;;;;;;;;;1752378;28;20216;-73
2022/05/26 02:43:35;;;;;;;0.00;0.00;;;;;;;;;;1750797;28;20204;-73
2022/05/26 02:44:27;;;;;;;0.00;0.00;;;;;;;;;;1751331;28;20204;-73
2022/05/26 02:45:22;;;;;;;0.00;0.00;;;;;;;;;;1750828;28;20308;-73
2022/05/26 02:46:19;;;;;;;0.00;0.00;;;;;;;;;;1752868;28;20229;-73
2022/05/26 02:47:17;;;;;;;0.00;0.00;;;;;;;;;;1753191;28;20194;-73
2022/05/26 02:48:15;;;;;;;0.00;0.00;;;;;;;;;;1752401;28;20545;-73
2022/05/26 02:49:14;;;;;;;0.00;0.00;;;;;;;;;;1752263;28;20585;-73
2022/05/26 02:50:13;;;;;;;0.00;0.00;;;;;;;;;;1751989;28;20578;-73
2022/05/26 02:51:07;;;;;;;0.00;0.00;;;;;;;;;;1750789;28;20221;-73
2022/05/26 02:52:03;;;;;;;0.00;0.00;;;;;;;;;;1752981;28;20201;-73
2022/05/26 02:53:00;;;;;;;0.00;0.00;;;;;;;;;;1752189;28;20800;-73
2022/05/26 02:54:06;;;;;;;0.00;0.00;;;;;;;;;;1753099;28;20194;-73
2022/05/26 02:55:03;;;;;;;0.00;0.00;;;;;;;;;;1752119;28;20202;-73
2022/05/26 02:56:04;;;;;;;0.00;0.00;;;;;;;;;;1744148;28;20826;-73
2022/05/26 02:57:01;;;;;;;0.00;0.00;;;;;;;;;;1752454;28;20232;-73
2022/05/26 02:58:00;;;;;;;0.00;0.00;;;;;;;;;;1752344;28;20250;-73
2022/05/26 02:58:57;;;;;;;0.00;0.00;;;;;;;;;;1753048;28;20266;-73
2022/05/26 02:59:54;;;;;;;0.00;0.00;;;;;;;;;;1752422;28;20236;-73
2022/05/26 03:00:48;;;;;;;0.00;0.00;;;;;;;;;;1749545;28;20241;-73
2022/05/26 03:01:42;;;;;;;0.00;0.00;;;;;;;;;;1750129;28;20578;-73
2022/05/26 03:02:38;;;;;;;0.00;0.00;;;;;;;;;;1752774;28;20209;-73
2022/05/26 03:03:35;;;;;;;0.00;0.00;;;;;;;;;;1752496;28;20607;-73
2022/05/26 03:04:28;;;;;;;0.00;0.00;;;;;;;;;;1752660;28;20201;-73
2022/05/26 03:05:22;;;;;;;0.00;0.00;;;;;;;;;;1751377;28;20209;-72
2022/05/26 03:06:15;;;;;;;0.00;0.00;;;;;;;;;;1752513;28;20218;-72
2022/05/26 03:07:10;;;;;;;0.00;0.00;;;;;;;;;;1752529;28;20206;-72
2022/05/26 03:08:02;;;;;;;0.00;0.00;;;;;;;;;;1751193;28;20626;-72
2022/05/26 03:08:54;;;;;;;0.00;0.00;;;;;;;;;;1752897;28;20286;-73
2022/05/26 03:09:46;;;;;;;0.00;0.00;;;;;;;;;;1751854;28;20613;-73
2022/05/26 03:10:38;;;;;;;0.00;0.00;;;;;;;;;;1752436;28;20657;-73
2022/05/26 03:11:29;;;;;;;0.00;0.00;;;;;;;;;;1752359;28;20201;-73
2022/05/26 03:12:23;;;;;;;0.00;0.00;;;;;;;;;;1752449;28;20193;-73
2022/05/26 03:13:14;;;;;;;0.00;0.00;;;;;;;;;;1752330;28;20535;-72
2022/05/26 03:14:06;;;;;;;0.00;0.00;;;;;;;;;;1752039;28;20247;-72
2022/05/26 03:14:58;;;;;;;0.00;0.00;;;;;;;;;;1750781;28;20252;-72
2022/05/26 03:15:52;;;;;;;0.00;0.00;;;;;;;;;;1746989;28;20210;-72
2022/05/26 03:16:44;;;;;;;0.00;0.00;;;;;;;;;;1752141;28;20202;-72
2022/05/26 03:17:36;;;;;;;0.00;0.00;;;;;;;;;;1752677;28;20193;-72
2022/05/26 03:18:28;;;;;;;0.00;0.00;;;;;;;;;;1752125;28;20292;-72
2022/05/26 03:19:21;;;;;;;0.00;0.00;;;;;;;;;;1752863;28;20206;-72
2022/05/26 03:20:13;;;;;;;0.00;0.00;;;;;;;;;;1750726;28;20543;-72
2022/05/26 03:21:07;;;;;;;0.10;0.10;;;;;;;;;;1751471;28;20730;-72
2022/05/26 03:21:58;;;;;;;0.00;0.00;;;;;;;;;;1752749;28;20791;-72
2022/05/26 03:22:51;;;;;;;0.00;0.00;;;;;;;;;;1752189;28;20753;-72
2022/05/26 03:23:42;;;;;;;0.00;0.00;;;;;;;;;;1752453;28;20301;-73
2022/05/26 03:24:34;;;;;;;0.00;0.00;;;;;;;;;;1752258;28;20624;-73
2022/05/26 03:25:25;;;;;;;0.00;0.00;;;;;;;;;;1750987;28;21002;-73
2022/05/26 03:26:18;;;;;;;0.00;0.00;;;;;;;;;;1752384;28;20185;-73
2022/05/26 03:27:09;;;;;;;0.00;0.00;;;;;;;;;;1752049;28;20256;-73
2022/05/26 03:28:01;;;;;;;0.00;0.00;;;;;;;;;;1752487;28;20659;-72
2022/05/26 03:28:52;;;;;;;0.00;0.00;;;;;;;;;;1752468;28;20197;-72
2022/05/26 03:29:45;;;;;;;0.10;0.10;;;;;;;;;;1752562;28;20205;-72
2022/05/26 03:30:37;;;;;;;0.00;0.00;;;;;;;;;;1751092;28;20650;-72
2022/05/26 03:31:32;;;;;;;0.00;0.00;;;;;;;;;;1745039;28;20601;-72
2022/05/26 03:32:23;;;;;;;0.00;0.00;;;;;;;;;;1745112;28;20213;-73
2022/05/26 03:33:15;;;;;;;0.00;0.00;;;;;;;;;;1749262;28;20536;-73
2022/05/26 03:41:08;;;;;;;0.00;0.00;;;;;;;;;;1744441;28;20775;-72
2022/05/26 03:42:00;;;;;;;0.00;0.00;;;;;;;;;;1759666;28;20793;-72
2022/05/26 03:42:52;;;;;;;0.00;0.00;;;;;;;;;;1759360;28;20846;-73
2022/05/26 03:43:45;;;;;;;0.00;0.00;;;;;;;;;;1756704;28;20201;-73
2022/05/26 03:44:37;;;;;;;0.00;0.00;;;;;;;;;;1759286;28;20236;-74
2022/05/26 03:45:34;;;;;;;0.00;0.00;;;;;;;;;;1754434;28;20213;-73
2022/05/26 03:46:26;;;;;;;0.00;0.00;;;;;;;;;;1759011;28;20258;-74
2022/05/26 03:47:18;;;;;;;0.00;0.00;;;;;;;;;;1759459;28;20208;-74
2022/05/26 03:48:09;;;;;;;0.00;0.00;;;;;;;;;;1759473;28;20196;-74
2022/05/26 03:49:01;;;;;;;0.00;0.00;;;;;;;;;;1759960;28;20668;-74
2022/05/26 03:49:52;;;;;;;0.00;0.00;;;;;;;;;;1758917;28;20197;-74
2022/05/26 03:50:46;;;;;;;0.00;0.00;;;;;;;;;;1758108;28;20437;-74
2022/05/26 03:51:37;;;;;;;0.00;0.00;;;;;;;;;;1758281;28;20216;-74
2022/05/26 03:52:29;;;;;;;0.00;0.00;;;;;;;;;;1759610;28;20207;-73
2022/05/26 03:53:21;;;;;;;0.00;0.00;;;;;;;;;;1758191;28;20201;-73
2022/05/26 03:54:13;;;;;;;0.00;0.00;;;;;;;;;;1759986;28;20224;-74
2022/05/26 03:55:04;;;;;;;0.00;0.00;;;;;;;;;;1759541;28;20219;-74
2022/05/26 03:55:57;;;;;;;0.00;0.00;;;;;;;;;;1758822;28;20318;-74
2022/05/26 03:56:48;;;;;;;0.00;0.00;;;;;;;;;;1758961;28;20197;-74
2022/05/26 03:57:40;;;;;;;0.00;0.00;;;;;;;;;;1758998;28;20811;-74
2022/05/26 03:58:32;;;;;;;0.00;0.00;;;;;;;;;;1758844;28;20304;-74
2022/05/26 03:59:24;;;;;;;0.00;0.00;;;;;;;;;;1759688;28;20571;-74
2022/05/26 04:00:17;;;;;;;0.00;0.00;;;;;;;;;;1757699;28;20565;-74
2022/05/26 04:01:09;;;;;;;0.00;0.00;;;;;;;;;;1759697;28;20193;-74
2022/05/26 04:02:01;;;;;;;0.00;0.00;;;;;;;;;;1759603;28;20228;-74
2022/05/26 04:02:53;;;;;;;0.00;0.00;;;;;;;;;;1759340;28;20197;-74
2022/05/26 04:03:44;;;;;;;0.00;0.00;;;;;;;;;;1759419;28;20209;-74
2022/05/26 04:04:36;;;;;;;0.00;0.00;;;;;;;;;;1758454;28;20212;-74
2022/05/26 04:05:29;;;;;;;0.00;0.00;;;;;;;;;;1755172;28;20516;-74
2022/05/26 04:06:23;;;;;;;0.00;0.00;;;;;;;;;;1751754;28;20284;-74
2022/05/26 04:07:15;;;;;;;0.00;0.00;;;;;;;;;;1752104;28;20201;-74
2022/05/26 04:08:07;;;;;;;0.00;0.00;;;;;;;;;;1756381;28;20197;-74
2022/05/26 04:08:59;;;;;;;0.00;0.00;;;;;;;;;;1759809;28;20306;-74
2022/05/26 04:09:51;;;;;;;0.00;0.00;;;;;;;;;;1759147;28;20207;-74
2022/05/26 04:10:42;;;;;;;0.00;0.00;;;;;;;;;;1757172;28;20259;-73
2022/05/26 04:11:35;;;;;;;0.00;0.00;;;;;;;;;;1759072;28;20205;-73
2022/05/26 04:12:26;;;;;;;0.00;0.00;;;;;;;;;;1759604;28;20213;-73
2022/05/26 04:13:18;;;;;;;0.00;0.00;;;;;;;;;;1759135;28;20233;-73
2022/05/26 04:14:10;;;;;;;0.00;0.00;;;;;;;;;;1759395;28;20193;-73
2022/05/26 04:15:02;;;;;;;0.00;0.00;;;;;;;;;;1758982;28;20193;-73
2022/05/26 04:15:54;;;;;;;0.00;0.00;;;;;;;;;;1758595;28;20236;-73
2022/05/26 04:16:46;;;;;;;0.00;0.00;;;;;;;;;;1758072;28;20192;-74
2022/05/26 04:17:37;;;;;;;0.00;0.00;;;;;;;;;;1759595;28;20255;-74
2022/05/26 04:18:29;;;;;;;0.00;0.00;;;;;;;;;;1759088;28;20200;-74
2022/05/26 04:19:21;;;;;;;0.00;0.00;;;;;;;;;;1759419;28;20200;-74
2022/05/26 04:20:16;;;;;;;0.00;0.00;;;;;;;;;;1758495;28;20201;-75
2022/05/26 04:21:09;;;;;;;0.00;0.00;;;;;;;;;;1758165;28;20323;-74
2022/05/26 04:22:18;;;;;;;0.00;0.00;;;;;;;;;;1759920;28;20257;-74
2022/05/26 04:23:10;;;;;;;0.00;0.00;;;;;;;;;;1758215;28;20220;-74
2022/05/26 04:24:02;;;;;;;0.00;0.00;;;;;;;;;;1759449;28;20232;-73
2022/05/26 04:24:54;;;;;;;0.00;0.00;;;;;;;;;;1758729;28;20224;-73
2022/05/26 04:25:47;;;;;;;0.00;0.00;;;;;;;;;;1758265;28;20220;-73
2022/05/26 04:26:38;;;;;;;0.00;0.00;;;;;;;;;;1759133;28;20220;-73
2022/05/26 04:27:32;;;;;;;0.00;0.00;;;;;;;;;;1752411;28;20205;-73
2022/05/26 04:28:23;;;;;;;0.00;0.00;;;;;;;;;;1759047;28;20212;-73
2022/05/26 04:29:15;;;;;;;0.00;0.00;;;;;;;;;;1759987;28;20246;-73
2022/05/26 04:30:08;;;;;;;0.00;0.00;;;;;;;;;;1759961;28;20208;-73
2022/05/26 04:31:00;;;;;;;0.00;0.00;;;;;;;;;;1758647;28;20274;-73
2022/05/26 04:31:51;;;;;;;0.00;0.00;;;;;;;;;;1760800;28;20193;-73
2022/05/26 04:32:44;;;;;;;0.00;0.00;;;;;;;;;;1761026;28;20200;-73
2022/05/26 04:33:36;;;;;;;0.00;0.00;;;;;;;;;;1760434;28;20531;-73
2022/05/26 04:34:28;;;;;;;0.00;0.00;;;;;;;;;;1760404;28;20244;-73
2022/05/26 04:35:19;;;;;;;0.00;0.00;;;;;;;;;;1758227;28;20208;-73
2022/05/26 04:36:12;;;;;;;0.00;0.00;;;;;;;;;;1760350;28;20192;-73
2022/05/26 04:37:04;;;;;;;0.00;0.00;;;;;;;;;;1759963;28;20200;-73
2022/05/26 04:38:00;;;;;;;0.00;0.00;;;;;;;;;;1760579;28;20197;-73
2022/05/26 04:38:51;;;;;;;0.00;0.00;;;;;;;;;;1760822;28;20212;-74
2022/05/26 04:39:43;;;;;;;0.00;0.00;;;;;;;;;;1759785;28;20584;-73
2022/05/26 04:40:34;;;;;;;0.00;0.00;;;;;;;;;;1756791;28;20244;-73
2022/05/26 04:41:27;;;;;;;0.00;0.00;;;;;;;;;;1756096;28;20292;-73
2022/05/26 04:42:18;;;;;;;0.00;0.00;;;;;;;;;;1760166;28;20264;-74
2022/05/26 04:43:11;;;;;;;0.00;0.00;;;;;;;;;;1760421;28;20250;-73
2022/05/26 04:44:02;;;;;;;0.00;0.00;;;;;;;;;;1757831;28;20221;-74
2022/05/26 04:44:54;;;;;;;0.00;0.00;;;;;;;;;;1760469;28;20201;-73
2022/05/26 04:45:45;;;;;;;0.00;0.00;;;;;;;;;;1759761;28;20578;-73
2022/05/26 04:46:38;;;;;;;0.00;0.00;;;;;;;;;;1760269;27;20205;-73
2022/05/26 04:47:30;;;;;;;0.00;0.00;;;;;;;;;;1767749;27;20245;-73
2022/05/26 04:48:22;;;;;;;0.00;0.00;;;;;;;;;;1760660;27;20228;-74
2022/05/26 04:49:13;;;;;;;0.00;0.00;;;;;;;;;;1760946;28;20219;-74
2022/05/26 04:50:06;;;;;;;0.00;0.00;;;;;;;;;;1760160;28;20204;-73
2022/05/26 04:50:57;;;;;;;0.00;0.00;;;;;;;;;;1759329;28;20236;-74
2022/05/26 04:51:49;;;;;;;0.00;0.00;;;;;;;;;;1759836;28;20205;-73
2022/05/26 04:52:42;;;;;;;0.00;0.00;;;;;;;;;;1760214;28;20630;-73
2022/05/26 04:53:34;;;;;;;0.00;0.00;;;;;;;;;;1760412;28;20235;-73
2022/05/26 04:54:25;;;;;;;0.00;0.00;;;;;;;;;;1759432;28;20231;-73
2022/05/26 04:55:18;;;;;;;0.00;0.00;;;;;;;;;;1758801;28;20197;-73
2022/05/26 04:56:09;;;;;;;0.00;0.00;;;;;;;;;;1760650;28;20212;-73
2022/05/26 04:57:01;;;;;;;0.00;0.00;;;;;;;;;;1760704;28;20189;-73
2022/05/26 04:57:53;;;;;;;0.00;0.00;;;;;;;;;;1760209;28;20629;-73
2022/05/26 04:58:47;;;;;;;0.00;0.00;;;;;;;;;;1760261;28;20212;-73
2022/05/26 04:59:39;;;;;;;0.00;0.00;;;;;;;;;;1760178;28;20316;-73
2022/05/26 05:00:31;;;;;;;0.00;0.00;;;;;;;;;;1758213;28;20208;-74
2022/05/26 05:01:24;;;;;;;0.00;0.00;;;;;;;;;;1760080;28;20206;-74
2022/05/26 05:02:17;;;;;;;0.00;0.00;;;;;;;;;;1760824;28;20266;-74
2022/05/26 05:03:08;;;;;;;0.00;0.00;;;;;;;;;;1760272;28;20201;-73
2022/05/26 05:04:01;;;;;;;0.00;0.00;;;;;;;;;;1760553;28;20704;-73
2022/05/26 05:04:53;;;;;;;0.00;0.00;;;;;;;;;;1760054;28;20212;-73
2022/05/26 05:05:47;;;;;;;0.00;0.00;;;;;;;;;;1759547;28;20228;-73
2022/05/26 05:06:38;;;;;;;0.00;0.00;;;;;;;;;;1759282;28;20220;-73
2022/05/26 05:07:30;;;;;;;0.00;0.00;;;;;;;;;;1753173;28;20576;-73
2022/05/26 05:08:23;;;;;;;0.00;0.00;;;;;;;;;;1758825;28;20205;-73
2022/05/26 05:09:15;;;;;;;0.00;0.00;;;;;;;;;;1760803;28;20231;-73
2022/05/26 05:10:07;;;;;;;0.00;0.00;;;;;;;;;;1760362;28;20204;-73
2022/05/26 05:10:59;;;;;;;0.00;0.00;;;;;;;;;;1759112;28;20216;-73
2022/05/26 05:11:51;;;;;;;0.00;0.00;;;;;;;;;;1760394;28;20200;-73
2022/05/26 05:12:43;;;;;;;0.00;0.00;;;;;;;;;;1759909;28;20201;-74
2022/05/26 05:13:34;;;;;;;0.00;0.00;;;;;;;;;;1759666;28;20204;-74
2022/05/26 05:14:27;;;;;;;0.00;0.00;;;;;;;;;;1760398;28;20201;-74
2022/05/26 05:15:22;;;;;;;0.00;0.00;;;;;;;;;;1758247;28;20555;-74
2022/05/26 05:16:17;;;;;;;0.00;0.00;;;;;;;;;;1760579;28;20334;-74
2022/05/26 05:17:08;;;;;;;0.00;0.00;;;;;;;;;;1760284;28;20208;-74
2022/05/26 05:18:01;;;;;;;0.00;0.00;;;;;;;;;;1760330;28;20197;-74
2022/05/26 05:18:52;;;;;;;0.00;0.00;;;;;;;;;;1760149;28;20204;-73
2022/05/26 05:19:44;;;;;;;0.00;0.00;;;;;;;;;;1759401;28;20196;-73
2022/05/26 05:20:36;;;;;;;0.00;0.00;;;;;;;;;;1758773;28;20229;-73
2022/05/26 05:21:30;;;;;;;0.00;0.00;;;;;;;;;;1760015;28;20300;-73
2022/05/26 05:22:24;;;;;;;0.00;0.00;;;;;;;;;;1760754;28;20205;-74
2022/05/26 05:23:16;;;;;;;0.00;0.00;;;;;;;;;;1760054;28;20207;-74
2022/05/26 05:24:14;;;;;;;0.00;0.00;;;;;;;;;;1760519;28;20252;-74
2022/05/26 05:25:12;;;;;;;0.00;0.00;;;;;;;;;;1759679;28;20201;-74
2022/05/26 05:26:03;;;;;;;0.00;0.00;;;;;;;;;;1758129;28;20237;-74
2022/05/26 05:26:58;;;;;;;0.00;0.00;;;;;;;;;;1760173;28;20193;-74
2022/05/26 05:27:50;;;;;;;0.10;0.10;;;;;;;;;;1759871;28;20258;-74
2022/05/26 05:28:44;;;;;;;0.00;0.00;;;;;;;;;;1760358;28;20215;-74
2022/05/26 05:29:36;;;;;;;0.00;0.00;;;;;;;;;;1759872;28;20227;-74
2022/05/26 05:30:31;;;;;;;0.00;0.00;;;;;;;;;;1758547;28;20212;-74